sensor_id;sensor_type;location;lat;lon;timestamp;pressure;altitude;pressure_sealevel;temperature;humidity
57644;BME280;43474;46.510;6.686;2023-05-20T00:01:01;96318.84;;;11.32;100.00
57644;BME280;43474;46.510;6.686;2023-05-20T00:03:26;96320.09;;;11.47;100.00
57644;BME280;43474;46.510;6.686;2023-05-20T00:05:52;96321.97;;;11.46;100.00
57644;BME280;43474;46.510;6.686;2023-05-20T00:08:17;96314.34;;;11.33;100.00
57644;BME280;43474;46.510;6.686;2023-05-20T00:10:43;96325.69;;;11.28;100.00
57644;BME280;43474;46.510;6.686;2023-05-20T00:13:09;96315.25;;;11.22;100.00
57644;BME280;43474;46.510;6.686;2023-05-20T00:15:35;96316.53;;;11.19;100.00
57644;BME280;43474;46.510;6.686;2023-05-20T00:18:01;96296.44;;;11.06;100.00
57644;BME280;43474;46.510;6.686;2023-05-20T00:20:27;96307.06;;;11.06;100.00
57644;BME280;43474;46.510;6.686;2023-05-20T00:22:52;96306.72;;;11.03;100.00
57644;BME280;43474;46.510;6.686;2023-05-20T00:25:18;96307.53;;;11.03;100.00
57644;BME280;43474;46.510;6.686;2023-05-20T00:27:43;96314.53;;;11.09;100.00
57644;BME280;43474;46.510;6.686;2023-05-20T00:30:10;96320.88;;;11.08;100.00
57644;BME280;43474;46.510;6.686;2023-05-20T00:32:36;96304.94;;;11.08;100.00
57644;BME280;43474;46.510;6.686;2023-05-20T00:35:03;96313.91;;;11.19;100.00
57644;BME280;43474;46.510;6.686;2023-05-20T00:37:28;96313.06;;;11.19;100.00
57644;BME280;43474;46.510;6.686;2023-05-20T00:39:54;96296.84;;;11.15;100.00
57644;BME280;43474;46.510;6.686;2023-05-20T00:42:24;96315.00;;;11.23;100.00
57644;BME280;43474;46.510;6.686;2023-05-20T00:44:51;96306.56;;;11.26;100.00
57644;BME280;43474;46.510;6.686;2023-05-20T00:47:18;96290.31;;;11.23;100.00
57644;BME280;43474;46.510;6.686;2023-05-20T00:49:44;96276.69;;;11.14;100.00
57644;BME280;43474;46.510;6.686;2023-05-20T00:52:11;96307.34;;;11.27;100.00
57644;BME280;43474;46.510;6.686;2023-05-20T00:54:37;96278.28;;;11.15;100.00
57644;BME280;43474;46.510;6.686;2023-05-20T00:57:04;96297.97;;;11.19;100.00
57644;BME280;43474;46.510;6.686;2023-05-20T00:59:32;96286.09;;;11.05;100.00
57644;BME280;43474;46.510;6.686;2023-05-20T01:02:03;96288.03;;;11.09;100.00
57644;BME280;43474;46.510;6.686;2023-05-20T01:04:29;96291.16;;;11.06;100.00
57644;BME280;43474;46.510;6.686;2023-05-20T01:06:55;96294.41;;;11.13;100.00
57644;BME280;43474;46.510;6.686;2023-05-20T01:09:22;96275.88;;;10.97;100.00
57644;BME280;43474;46.510;6.686;2023-05-20T01:11:55;96283.44;;;11.05;100.00
57644;BME280;43474;46.510;6.686;2023-05-20T01:14:24;96286.66;;;11.07;100.00
57644;BME280;43474;46.510;6.686;2023-05-20T01:16:52;96277.41;;;11.09;100.00
57644;BME280;43474;46.510;6.686;2023-05-20T01:19:43;96270.47;;;11.08;100.00
57644;BME280;43474;46.510;6.686;2023-05-20T01:22:10;96268.72;;;11.14;100.00
57644;BME280;43474;46.510;6.686;2023-05-20T01:24:44;96260.59;;;11.04;100.00
57644;BME280;43474;46.510;6.686;2023-05-20T01:27:11;96275.50;;;11.05;100.00
57644;BME280;43474;46.510;6.686;2023-05-20T01:29:39;96273.31;;;11.02;100.00
57644;BME280;43474;46.510;6.686;2023-05-20T01:32:07;96290.41;;;11.11;100.00
57644;BME280;43474;46.510;6.686;2023-05-20T01:34:34;96281.59;;;11.05;100.00
57644;BME280;43474;46.510;6.686;2023-05-20T01:37:03;96279.16;;;11.04;100.00
57644;BME280;43474;46.510;6.686;2023-05-20T01:39:30;96289.88;;;11.09;100.00
57644;BME280;43474;46.510;6.686;2023-05-20T01:41:56;96284.88;;;11.12;100.00
57644;BME280;43474;46.510;6.686;2023-05-20T01:44:22;96255.00;;;11.00;100.00
57644;BME280;43474;46.510;6.686;2023-05-20T01:46:49;96300.47;;;11.09;100.00
57644;BME280;43474;46.510;6.686;2023-05-20T01:49:14;96286.31;;;11.03;100.00
57644;BME280;43474;46.510;6.686;2023-05-20T01:51:40;96288.03;;;11.09;100.00
57644;BME280;43474;46.510;6.686;2023-05-20T01:54:05;96283.09;;;11.18;100.00
57644;BME280;43474;46.510;6.686;2023-05-20T01:56:31;96282.59;;;11.21;100.00
57644;BME280;43474;46.510;6.686;2023-05-20T01:58:57;96284.66;;;11.14;100.00
57644;BME280;43474;46.510;6.686;2023-05-20T02:01:22;96277.72;;;11.13;100.00
57644;BME280;43474;46.510;6.686;2023-05-20T02:03:55;96283.88;;;11.19;100.00
57644;BME280;43474;46.510;6.686;2023-05-20T02:06:21;96283.72;;;11.25;100.00
57644;BME280;43474;46.510;6.686;2023-05-20T02:08:46;96272.81;;;11.22;100.00
57644;BME280;43474;46.510;6.686;2023-05-20T02:11:12;96280.03;;;11.26;100.00
57644;BME280;43474;46.510;6.686;2023-05-20T02:13:38;96262.13;;;11.17;100.00
57644;BME280;43474;46.510;6.686;2023-05-20T02:16:03;96258.66;;;11.16;100.00
57644;BME280;43474;46.510;6.686;2023-05-20T02:18:29;96263.56;;;11.24;100.00
57644;BME280;43474;46.510;6.686;2023-05-20T02:21:03;96262.78;;;11.07;100.00
57644;BME280;43474;46.510;6.686;2023-05-20T02:23:32;96261.19;;;11.06;100.00
57644;BME280;43474;46.510;6.686;2023-05-20T02:25:58;96243.59;;;11.00;100.00
57644;BME280;43474;46.510;6.686;2023-05-20T02:28:23;96251.47;;;10.95;100.00
57644;BME280;43474;46.510;6.686;2023-05-20T02:30:49;96257.00;;;10.93;100.00
57644;BME280;43474;46.510;6.686;2023-05-20T02:33:18;96255.16;;;10.94;100.00
57644;BME280;43474;46.510;6.686;2023-05-20T02:35:44;96265.31;;;10.80;100.00
57644;BME280;43474;46.510;6.686;2023-05-20T02:38:10;96245.94;;;10.63;100.00
57644;BME280;43474;46.510;6.686;2023-05-20T02:40:35;96254.03;;;10.73;100.00
57644;BME280;43474;46.510;6.686;2023-05-20T02:43:01;96251.22;;;10.63;100.00
57644;BME280;43474;46.510;6.686;2023-05-20T02:45:27;96260.47;;;10.60;100.00
57644;BME280;43474;46.510;6.686;2023-05-20T02:47:52;96239.25;;;10.43;100.00
57644;BME280;43474;46.510;6.686;2023-05-20T02:50:18;96275.06;;;10.63;100.00
57644;BME280;43474;46.510;6.686;2023-05-20T02:52:44;96274.81;;;10.64;100.00
57644;BME280;43474;46.510;6.686;2023-05-20T02:55:10;96271.88;;;10.60;100.00
57644;BME280;43474;46.510;6.686;2023-05-20T02:57:36;96258.22;;;10.52;100.00
57644;BME280;43474;46.510;6.686;2023-05-20T03:00:10;96261.09;;;10.50;100.00
57644;BME280;43474;46.510;6.686;2023-05-20T03:02:36;96249.63;;;10.45;100.00
57644;BME280;43474;46.510;6.686;2023-05-20T03:05:01;96263.84;;;10.55;100.00
57644;BME280;43474;46.510;6.686;2023-05-20T03:07:28;96262.78;;;10.56;100.00
57644;BME280;43474;46.510;6.686;2023-05-20T03:09:54;96270.19;;;10.54;100.00
57644;BME280;43474;46.510;6.686;2023-05-20T03:12:19;96250.81;;;10.37;100.00
57644;BME280;43474;46.510;6.686;2023-05-20T03:14:45;96255.63;;;10.40;100.00
57644;BME280;43474;46.510;6.686;2023-05-20T03:17:10;96239.66;;;10.35;100.00
57644;BME280;43474;46.510;6.686;2023-05-20T03:19:36;96249.03;;;10.26;100.00
57644;BME280;43474;46.510;6.686;2023-05-20T03:22:02;96231.63;;;10.01;100.00
57644;BME280;43474;46.510;6.686;2023-05-20T03:24:28;96246.91;;;9.99;100.00
57644;BME280;43474;46.510;6.686;2023-05-20T03:26:53;96251.19;;;10.00;100.00
57644;BME280;43474;46.510;6.686;2023-05-20T03:29:22;96252.94;;;9.95;100.00
57644;BME280;43474;46.510;6.686;2023-05-20T03:31:47;96248.16;;;9.80;100.00
57644;BME280;43474;46.510;6.686;2023-05-20T03:34:13;96257.72;;;9.81;100.00
57644;BME280;43474;46.510;6.686;2023-05-20T03:36:38;96242.88;;;9.80;100.00
57644;BME280;43474;46.510;6.686;2023-05-20T03:39:04;96247.06;;;9.93;100.00
57644;BME280;43474;46.510;6.686;2023-05-20T03:41:31;96243.06;;;9.90;100.00
57644;BME280;43474;46.510;6.686;2023-05-20T03:43:56;96249.63;;;9.88;100.00
57644;BME280;43474;46.510;6.686;2023-05-20T03:46:23;96249.06;;;9.86;100.00
57644;BME280;43474;46.510;6.686;2023-05-20T03:48:49;96265.94;;;9.96;100.00
57644;BME280;43474;46.510;6.686;2023-05-20T03:51:14;96238.41;;;9.97;100.00
57644;BME280;43474;46.510;6.686;2023-05-20T03:53:40;96248.22;;;9.97;100.00
57644;BME280;43474;46.510;6.686;2023-05-20T03:56:06;96248.41;;;10.07;100.00
57644;BME280;43474;46.510;6.686;2023-05-20T03:58:31;96224.38;;;9.97;100.00
57644;BME280;43474;46.510;6.686;2023-05-20T04:00:57;96242.47;;;10.17;100.00
57644;BME280;43474;46.510;6.686;2023-05-20T04:03:23;96238.25;;;10.04;100.00
57644;BME280;43474;46.510;6.686;2023-05-20T04:05:49;96224.09;;;9.81;100.00
57644;BME280;43474;46.510;6.686;2023-05-20T04:08:15;96248.31;;;10.02;100.00
57644;BME280;43474;46.510;6.686;2023-05-20T04:10:43;96238.34;;;10.09;100.00
57644;BME280;43474;46.510;6.686;2023-05-20T04:13:09;96232.13;;;9.87;100.00
57644;BME280;43474;46.510;6.686;2023-05-20T04:15:36;96242.63;;;10.10;100.00
57644;BME280;43474;46.510;6.686;2023-05-20T04:18:03;96241.16;;;10.02;100.00
57644;BME280;43474;46.510;6.686;2023-05-20T04:20:30;96248.56;;;9.89;100.00
57644;BME280;43474;46.510;6.686;2023-05-20T04:22:55;96255.44;;;10.01;100.00
57644;BME280;43474;46.510;6.686;2023-05-20T04:25:21;96261.28;;;10.03;100.00
57644;BME280;43474;46.510;6.686;2023-05-20T04:27:47;96258.78;;;9.97;100.00
57644;BME280;43474;46.510;6.686;2023-05-20T04:30:23;96254.31;;;9.97;100.00
57644;BME280;43474;46.510;6.686;2023-05-20T04:32:49;96265.22;;;10.01;100.00
57644;BME280;43474;46.510;6.686;2023-05-20T04:35:15;96247.06;;;9.93;100.00
57644;BME280;43474;46.510;6.686;2023-05-20T04:37:41;96248.53;;;10.00;100.00
57644;BME280;43474;46.510;6.686;2023-05-20T04:40:09;96246.59;;;9.96;100.00
57644;BME280;43474;46.510;6.686;2023-05-20T04:42:35;96250.75;;;9.92;100.00
57644;BME280;43474;46.510;6.686;2023-05-20T04:45:01;96248.13;;;9.92;100.00
57644;BME280;43474;46.510;6.686;2023-05-20T04:47:30;96258.38;;;10.17;100.00
57644;BME280;43474;46.510;6.686;2023-05-20T04:49:56;96267.00;;;10.24;100.00
57644;BME280;43474;46.510;6.686;2023-05-20T04:52:25;96237.84;;;10.24;100.00
57644;BME280;43474;46.510;6.686;2023-05-20T04:54:53;96264.59;;;10.39;100.00
57644;BME280;43474;46.510;6.686;2023-05-20T04:57:22;96263.44;;;10.47;100.00
57644;BME280;43474;46.510;6.686;2023-05-20T04:59:49;96256.03;;;10.49;100.00
57644;BME280;43474;46.510;6.686;2023-05-20T05:02:16;96243.44;;;10.56;100.00
57644;BME280;43474;46.510;6.686;2023-05-20T05:04:42;96244.72;;;10.70;100.00
57644;BME280;43474;46.510;6.686;2023-05-20T05:07:08;96241.50;;;10.85;100.00
57644;BME280;43474;46.510;6.686;2023-05-20T05:09:33;96256.34;;;11.03;100.00
57644;BME280;43474;46.510;6.686;2023-05-20T05:11:59;96245.75;;;11.03;100.00
57644;BME280;43474;46.510;6.686;2023-05-20T05:14:24;96251.75;;;11.15;100.00
57644;BME280;43474;46.510;6.686;2023-05-20T05:16:50;96250.72;;;11.16;100.00
57644;BME280;43474;46.510;6.686;2023-05-20T05:19:15;96235.22;;;11.08;100.00
57644;BME280;43474;46.510;6.686;2023-05-20T05:21:41;96239.06;;;11.17;100.00
57644;BME280;43474;46.510;6.686;2023-05-20T05:24:06;96248.59;;;11.35;100.00
57644;BME280;43474;46.510;6.686;2023-05-20T05:26:32;96235.50;;;11.50;100.00
57644;BME280;43474;46.510;6.686;2023-05-20T05:28:58;96246.94;;;11.51;100.00
57644;BME280;43474;46.510;6.686;2023-05-20T05:31:23;96235.44;;;11.67;100.00
57644;BME280;43474;46.510;6.686;2023-05-20T05:33:49;96228.09;;;11.74;100.00
57644;BME280;43474;46.510;6.686;2023-05-20T05:36:15;96227.91;;;11.81;100.00
57644;BME280;43474;46.510;6.686;2023-05-20T05:38:40;96242.06;;;11.86;100.00
57644;BME280;43474;46.510;6.686;2023-05-20T05:41:06;96231.59;;;12.02;100.00
57644;BME280;43474;46.510;6.686;2023-05-20T05:43:32;96242.38;;;12.17;100.00
57644;BME280;43474;46.510;6.686;2023-05-20T05:45:58;96243.09;;;12.34;100.00
57644;BME280;43474;46.510;6.686;2023-05-20T05:48:23;96220.47;;;12.32;100.00
57644;BME280;43474;46.510;6.686;2023-05-20T05:50:49;96225.66;;;12.44;100.00
57644;BME280;43474;46.510;6.686;2023-05-20T05:53:14;96225.94;;;12.47;100.00
57644;BME280;43474;46.510;6.686;2023-05-20T05:55:40;96207.81;;;12.39;100.00
57644;BME280;43474;46.510;6.686;2023-05-20T05:58:06;96229.31;;;12.70;100.00
57644;BME280;43474;46.510;6.686;2023-05-20T06:00:31;96226.38;;;12.71;100.00
57644;BME280;43474;46.510;6.686;2023-05-20T06:02:57;96221.84;;;12.66;100.00
57644;BME280;43474;46.510;6.686;2023-05-20T06:05:22;96222.16;;;12.75;100.00
57644;BME280;43474;46.510;6.686;2023-05-20T06:07:48;96220.50;;;13.06;100.00
57644;BME280;43474;46.510;6.686;2023-05-20T06:10:13;96233.84;;;13.49;100.00
57644;BME280;43474;46.510;6.686;2023-05-20T06:12:39;96222.81;;;13.87;100.00
57644;BME280;43474;46.510;6.686;2023-05-20T06:15:05;96220.38;;;13.86;100.00
57644;BME280;43474;46.510;6.686;2023-05-20T06:17:31;96218.34;;;14.23;100.00
57644;BME280;43474;46.510;6.686;2023-05-20T06:19:57;96222.94;;;14.59;100.00
57644;BME280;43474;46.510;6.686;2023-05-20T06:22:23;96214.81;;;15.40;100.00
57644;BME280;43474;46.510;6.686;2023-05-20T06:24:49;96199.91;;;16.38;100.00
57644;BME280;43474;46.510;6.686;2023-05-20T06:27:14;96209.41;;;16.54;100.00
57644;BME280;43474;46.510;6.686;2023-05-20T06:29:40;96206.66;;;16.99;98.34
57644;BME280;43474;46.510;6.686;2023-05-20T06:32:05;96210.09;;;16.70;99.98
57644;BME280;43474;46.510;6.686;2023-05-20T06:34:31;96214.53;;;16.85;97.76
57644;BME280;43474;46.510;6.686;2023-05-20T06:36:57;96223.31;;;16.17;100.00
57644;BME280;43474;46.510;6.686;2023-05-20T06:39:23;96216.31;;;15.77;100.00
57644;BME280;43474;46.510;6.686;2023-05-20T06:41:49;96205.66;;;15.72;100.00
57644;BME280;43474;46.510;6.686;2023-05-20T06:44:16;96200.66;;;15.40;100.00
57644;BME280;43474;46.510;6.686;2023-05-20T06:46:42;96185.25;;;15.16;100.00
57644;BME280;43474;46.510;6.686;2023-05-20T06:49:07;96202.31;;;15.20;100.00
57644;BME280;43474;46.510;6.686;2023-05-20T06:51:33;96195.69;;;15.13;100.00
57644;BME280;43474;46.510;6.686;2023-05-20T06:53:59;96209.25;;;15.16;100.00
57644;BME280;43474;46.510;6.686;2023-05-20T06:56:24;96203.94;;;15.27;100.00
57644;BME280;43474;46.510;6.686;2023-05-20T06:58:50;96193.50;;;15.20;100.00
57644;BME280;43474;46.510;6.686;2023-05-20T07:01:15;96193.78;;;15.18;100.00
57644;BME280;43474;46.510;6.686;2023-05-20T07:03:41;96186.63;;;14.93;100.00
57644;BME280;43474;46.510;6.686;2023-05-20T07:06:09;96192.50;;;14.80;100.00
57644;BME280;43474;46.510;6.686;2023-05-20T07:08:35;96190.38;;;14.87;100.00
57644;BME280;43474;46.510;6.686;2023-05-20T07:11:00;96195.19;;;14.55;100.00
57644;BME280;43474;46.510;6.686;2023-05-20T07:13:26;96193.06;;;14.92;100.00
57644;BME280;43474;46.510;6.686;2023-05-20T07:15:51;96194.41;;;14.64;100.00
57644;BME280;43474;46.510;6.686;2023-05-20T07:18:17;96187.44;;;14.99;100.00
57644;BME280;43474;46.510;6.686;2023-05-20T07:20:43;96174.09;;;17.64;100.00
57644;BME280;43474;46.510;6.686;2023-05-20T07:23:09;96170.00;;;19.26;91.82
57644;BME280;43474;46.510;6.686;2023-05-20T07:25:35;96176.75;;;19.92;83.96
57644;BME280;43474;46.510;6.686;2023-05-20T07:28:00;96174.97;;;19.74;81.10
57644;BME280;43474;46.510;6.686;2023-05-20T07:30:26;96171.63;;;20.54;75.90
57644;BME280;43474;46.510;6.686;2023-05-20T07:32:52;96187.38;;;20.92;76.44
57644;BME280;43474;46.510;6.686;2023-05-20T07:35:17;96175.59;;;21.10;73.03
57644;BME280;43474;46.510;6.686;2023-05-20T07:37:43;96170.19;;;21.10;71.65
57644;BME280;43474;46.510;6.686;2023-05-20T07:40:09;96175.53;;;20.71;72.58
57644;BME280;43474;46.510;6.686;2023-05-20T07:42:35;96178.38;;;19.66;73.68
57644;BME280;43474;46.510;6.686;2023-05-20T07:45:01;96185.72;;;17.54;81.33
57644;BME280;43474;46.510;6.686;2023-05-20T07:47:27;96175.81;;;17.07;87.44
57644;BME280;43474;46.510;6.686;2023-05-20T07:49:52;96185.75;;;16.38;94.19
57644;BME280;43474;46.510;6.686;2023-05-20T07:52:18;96179.84;;;16.01;96.05
57644;BME280;43474;46.510;6.686;2023-05-20T07:54:43;96174.97;;;15.64;99.68
57644;BME280;43474;46.510;6.686;2023-05-20T07:57:09;96177.84;;;15.78;99.70
57644;BME280;43474;46.510;6.686;2023-05-20T07:59:34;96177.25;;;15.81;100.00
57644;BME280;43474;46.510;6.686;2023-05-20T08:02:00;96171.44;;;15.74;100.00
57644;BME280;43474;46.510;6.686;2023-05-20T08:04:26;96155.75;;;15.52;99.96
57644;BME280;43474;46.510;6.686;2023-05-20T08:06:52;96176.50;;;15.75;100.00
57644;BME280;43474;46.510;6.686;2023-05-20T08:09:18;96170.56;;;15.89;100.00
57644;BME280;43474;46.510;6.686;2023-05-20T08:11:44;96173.59;;;17.38;98.56
57644;BME280;43474;46.510;6.686;2023-05-20T08:14:09;96153.25;;;19.01;93.92
57644;BME280;43474;46.510;6.686;2023-05-20T08:16:35;96160.34;;;19.25;89.35
57644;BME280;43474;46.510;6.686;2023-05-20T08:19:01;96158.53;;;18.60;86.90
57644;BME280;43474;46.510;6.686;2023-05-20T08:21:27;96168.25;;;18.56;87.58
57644;BME280;43474;46.510;6.686;2023-05-20T08:23:52;96142.31;;;19.80;79.84
57644;BME280;43474;46.510;6.686;2023-05-20T08:26:18;96143.00;;;19.03;80.86
57644;BME280;43474;46.510;6.686;2023-05-20T08:28:44;96145.31;;;19.10;91.66
57644;BME280;43474;46.510;6.686;2023-05-20T08:31:09;96140.47;;;18.79;84.94
57644;BME280;43474;46.510;6.686;2023-05-20T08:33:35;96144.81;;;19.22;82.37
57644;BME280;43474;46.510;6.686;2023-05-20T08:36:01;96128.41;;;19.37;79.85
57644;BME280;43474;46.510;6.686;2023-05-20T08:38:26;96145.03;;;19.25;85.65
57644;BME280;43474;46.510;6.686;2023-05-20T08:40:54;96139.25;;;20.32;77.58
57644;BME280;43474;46.510;6.686;2023-05-20T08:43:20;96137.97;;;20.07;73.31
57644;BME280;43474;46.510;6.686;2023-05-20T08:45:46;96153.09;;;20.03;78.89
57644;BME280;43474;46.510;6.686;2023-05-20T08:48:11;96146.47;;;20.00;75.80
57644;BME280;43474;46.510;6.686;2023-05-20T08:50:37;96141.97;;;20.77;75.81
57644;BME280;43474;46.510;6.686;2023-05-20T08:53:03;96140.59;;;20.43;74.31
57644;BME280;43474;46.510;6.686;2023-05-20T08:55:37;96144.91;;;20.44;72.63
57644;BME280;43474;46.510;6.686;2023-05-20T08:58:06;96156.03;;;18.31;78.78
57644;BME280;43474;46.510;6.686;2023-05-20T09:00:31;96145.16;;;18.03;84.90
57644;BME280;43474;46.510;6.686;2023-05-20T09:02:58;96135.06;;;19.12;79.84
57644;BME280;43474;46.510;6.686;2023-05-20T09:05:25;96142.06;;;20.27;74.81
57644;BME280;43474;46.510;6.686;2023-05-20T09:07:51;96138.31;;;20.50;73.56
57644;BME280;43474;46.510;6.686;2023-05-20T09:10:18;96138.00;;;20.74;75.93
57644;BME280;43474;46.510;6.686;2023-05-20T09:12:44;96135.69;;;21.21;72.24
57644;BME280;43474;46.510;6.686;2023-05-20T09:15:10;96135.44;;;21.31;70.18
57644;BME280;43474;46.510;6.686;2023-05-20T09:17:36;96127.00;;;21.99;67.80
57644;BME280;43474;46.510;6.686;2023-05-20T09:20:09;96123.38;;;22.03;71.93
57644;BME280;43474;46.510;6.686;2023-05-20T09:22:35;96121.28;;;22.00;69.21
57644;BME280;43474;46.510;6.686;2023-05-20T09:25:01;96122.34;;;21.16;69.37
57644;BME280;43474;46.510;6.686;2023-05-20T09:27:26;96132.88;;;22.09;70.51
57644;BME280;43474;46.510;6.686;2023-05-20T09:29:52;96128.75;;;22.47;66.32
57644;BME280;43474;46.510;6.686;2023-05-20T09:32:20;96131.13;;;21.96;68.47
57644;BME280;43474;46.510;6.686;2023-05-20T09:34:48;96128.75;;;21.94;65.42
57644;BME280;43474;46.510;6.686;2023-05-20T09:37:17;96122.69;;;21.72;66.38
57644;BME280;43474;46.510;6.686;2023-05-20T09:39:54;96136.63;;;20.85;71.92
57644;BME280;43474;46.510;6.686;2023-05-20T09:42:30;96121.59;;;20.39;72.44
57644;BME280;43474;46.510;6.686;2023-05-20T09:44:59;96126.66;;;21.26;71.09
57644;BME280;43474;46.510;6.686;2023-05-20T09:47:26;96119.38;;;21.75;70.75
57644;BME280;43474;46.510;6.686;2023-05-20T09:49:52;96112.38;;;21.65;66.09
57644;BME280;43474;46.510;6.686;2023-05-20T09:52:18;96114.94;;;20.90;71.75
57644;BME280;43474;46.510;6.686;2023-05-20T09:54:44;96107.69;;;20.24;71.38
57644;BME280;43474;46.510;6.686;2023-05-20T09:57:11;96120.31;;;20.37;73.41
57644;BME280;43474;46.510;6.686;2023-05-20T09:59:39;96130.47;;;19.54;78.23
57644;BME280;43474;46.510;6.686;2023-05-20T10:02:05;96138.53;;;19.13;75.38
57644;BME280;43474;46.510;6.686;2023-05-20T10:04:33;96148.53;;;18.79;76.08
57644;BME280;43474;46.510;6.686;2023-05-20T10:09:49;96131.25;;;18.99;75.84
57644;BME280;43474;46.510;6.686;2023-05-20T10:12:28;96133.16;;;18.85;77.51
57644;BME280;43474;46.510;6.686;2023-05-20T10:17:43;96141.34;;;19.21;73.22
57644;BME280;43474;46.510;6.686;2023-05-20T10:20:11;96129.59;;;19.03;76.87
57644;BME280;43474;46.510;6.686;2023-05-20T10:22:37;96136.53;;;18.91;76.92
57644;BME280;43474;46.510;6.686;2023-05-20T10:25:22;96123.97;;;18.72;80.36
57644;BME280;43474;46.510;6.686;2023-05-20T10:27:49;96131.75;;;18.88;79.99
57644;BME280;43474;46.510;6.686;2023-05-20T10:30:19;96127.19;;;18.88;75.69
57644;BME280;43474;46.510;6.686;2023-05-20T10:32:52;96104.72;;;18.98;77.83
57644;BME280;43474;46.510;6.686;2023-05-20T10:35:22;96120.41;;;18.77;80.79
57644;BME280;43474;46.510;6.686;2023-05-20T10:37:51;96122.41;;;18.85;81.73
57644;BME280;43474;46.510;6.686;2023-05-20T10:40:19;96129.47;;;18.29;78.86
57644;BME280;43474;46.510;6.686;2023-05-20T10:42:45;96133.25;;;18.28;84.36
57644;BME280;43474;46.510;6.686;2023-05-20T10:45:27;96124.72;;;18.07;81.91
57644;BME280;43474;46.510;6.686;2023-05-20T10:47:56;96123.63;;;17.90;82.64
57644;BME280;43474;46.510;6.686;2023-05-20T10:52:52;96114.88;;;18.03;85.29
57644;BME280;43474;46.510;6.686;2023-05-20T10:55:18;96113.47;;;18.24;84.39
57644;BME280;43474;46.510;6.686;2023-05-20T10:57:44;96126.25;;;18.79;89.06
57644;BME280;43474;46.510;6.686;2023-05-20T11:00:11;96122.22;;;19.23;83.08
57644;BME280;43474;46.510;6.686;2023-05-20T11:02:37;96115.16;;;19.27;83.20
57644;BME280;43474;46.510;6.686;2023-05-20T11:05:04;96114.84;;;19.42;82.32
57644;BME280;43474;46.510;6.686;2023-05-20T11:07:31;96111.38;;;19.42;80.89
57644;BME280;43474;46.510;6.686;2023-05-20T11:09:57;96114.53;;;19.57;81.39
57644;BME280;43474;46.510;6.686;2023-05-20T11:12:24;96099.44;;;19.34;80.18
57644;BME280;43474;46.510;6.686;2023-05-20T11:14:51;96097.25;;;19.08;82.57
57644;BME280;43474;46.510;6.686;2023-05-20T11:17:17;96119.34;;;19.33;87.19
57644;BME280;43474;46.510;6.686;2023-05-20T11:19:43;96107.31;;;19.17;83.99
57644;BME280;43474;46.510;6.686;2023-05-20T11:22:08;96093.88;;;19.17;80.50
57644;BME280;43474;46.510;6.686;2023-05-20T11:24:34;96123.44;;;19.30;83.05
57644;BME280;43474;46.510;6.686;2023-05-20T11:27:00;96088.19;;;19.32;85.08
57644;BME280;43474;46.510;6.686;2023-05-20T11:29:27;96106.78;;;19.70;82.94
57644;BME280;43474;46.510;6.686;2023-05-20T11:31:53;96085.84;;;19.80;80.09
57644;BME280;43474;46.510;6.686;2023-05-20T11:34:22;96086.53;;;20.31;83.37
57644;BME280;43474;46.510;6.686;2023-05-20T11:36:54;96087.47;;;20.26;78.43
57644;BME280;43474;46.510;6.686;2023-05-20T11:39:20;96086.47;;;20.22;80.13
57644;BME280;43474;46.510;6.686;2023-05-20T11:41:46;96096.09;;;20.59;80.32
57644;BME280;43474;46.510;6.686;2023-05-20T11:44:12;96090.63;;;20.28;75.69
57644;BME280;43474;46.510;6.686;2023-05-20T11:46:42;96102.25;;;20.37;75.59
57644;BME280;43474;46.510;6.686;2023-05-20T11:49:08;96097.69;;;20.16;76.57
57644;BME280;43474;46.510;6.686;2023-05-20T11:51:33;96081.25;;;19.81;82.03
57644;BME280;43474;46.510;6.686;2023-05-20T11:54:03;96070.06;;;19.51;85.17
57644;BME280;43474;46.510;6.686;2023-05-20T11:56:29;96078.19;;;20.10;83.63
57644;BME280;43474;46.510;6.686;2023-05-20T11:58:56;96071.38;;;20.35;84.20
57644;BME280;43474;46.510;6.686;2023-05-20T12:01:23;96072.53;;;20.43;81.48
57644;BME280;43474;46.510;6.686;2023-05-20T12:03:49;96067.38;;;20.32;81.79
57644;BME280;43474;46.510;6.686;2023-05-20T12:06:16;96073.44;;;20.60;85.65
57644;BME280;43474;46.510;6.686;2023-05-20T12:08:42;96067.53;;;20.50;84.00
57644;BME280;43474;46.510;6.686;2023-05-20T12:11:07;96058.84;;;20.30;87.05
57644;BME280;43474;46.510;6.686;2023-05-20T12:13:33;96053.28;;;19.82;81.81
57644;BME280;43474;46.510;6.686;2023-05-20T12:15:58;96053.16;;;19.37;80.83
57644;BME280;43474;46.510;6.686;2023-05-20T12:18:24;96047.66;;;18.59;82.70
57644;BME280;43474;46.510;6.686;2023-05-20T12:20:50;96056.06;;;18.39;88.71
57644;BME280;43474;46.510;6.686;2023-05-20T12:23:16;96045.25;;;18.44;89.35
57644;BME280;43474;46.510;6.686;2023-05-20T12:25:41;96063.41;;;18.33;87.01
57644;BME280;43474;46.510;6.686;2023-05-20T12:28:07;96081.34;;;18.05;88.03
57644;BME280;43474;46.510;6.686;2023-05-20T12:30:32;96080.56;;;17.86;90.17
57644;BME280;43474;46.510;6.686;2023-05-20T12:32:58;96065.75;;;17.51;89.27
57644;BME280;43474;46.510;6.686;2023-05-20T12:35:34;96078.91;;;17.47;92.63
57644;BME280;43474;46.510;6.686;2023-05-20T12:38:00;96061.84;;;17.19;93.00
57644;BME280;43474;46.510;6.686;2023-05-20T12:40:25;96074.19;;;17.39;97.16
57644;BME280;43474;46.510;6.686;2023-05-20T12:42:51;96068.34;;;17.56;97.31
57644;BME280;43474;46.510;6.686;2023-05-20T12:45:16;96065.69;;;17.75;98.27
57644;BME280;43474;46.510;6.686;2023-05-20T12:47:43;96076.56;;;17.83;93.17
57644;BME280;43474;46.510;6.686;2023-05-20T12:50:09;96065.72;;;17.70;93.71
57644;BME280;43474;46.510;6.686;2023-05-20T12:52:35;96065.91;;;17.78;97.24
57644;BME280;43474;46.510;6.686;2023-05-20T12:55:00;96069.31;;;17.84;97.32
57644;BME280;43474;46.510;6.686;2023-05-20T12:57:26;96082.22;;;17.82;95.93
57644;BME280;43474;46.510;6.686;2023-05-20T12:59:51;96068.59;;;17.78;95.83